LPPD/PDL METAR and TAF weather

Enter ICAO airport designator
Station Type Date Time Source
LPPD METAR 2022/06/28 08:30 UTC NOAA

LPPD 280830Z 36006KT 330V040 9999 FEW018 BKN035 19/14 Q1030


Station Type Date Time Source
LPPD Decoded METAR 2022/06/28 08:30 UTC NOAA

Ponta Delgada / Nordela Acores , Portugal (LPPD) 37-44N 025-42W 72M
Jun 28, 2022 - 04:30 AM EDT / 2022.06.28 0830 UTC
Wind: from the N (360 degrees) at 7 MPH (6 KT) (direction variable):0
Visibility: greater than 7 mile(s):0
Sky conditions: mostly cloudy
Temperature: 66 F (19 C)
Dew Point: 57 F (14 C)
Relative Humidity: 72%
Pressure (altimeter): 30.42 in. Hg (1030 hPa)
ob: LPPD 280830Z 36006KT 330V040 9999 FEW018 BKN035 19/14 Q1030
cycle: 8

Station Type Date Time Source
LPPD TAF 2022/06/28 06:18 UTC NOAA

TAF LPPD 280500Z 2806/2906 34008KT 9999 FEW018 BKN035
TEMPO 2806/2815 SCT020
BECMG 2815/2817 SCT008 BKN020 PROB40
TEMPO 2817/2906 3000 -RADZ BR BKN006

Example: see airport list